Time;durP1;ratioP1;P1;durP2;ratioP2;P2;SDS_P1;SDS_P2;PMS_P1;PMS_P2;Temp;Humidity;BMP_temperature;BMP_pressure;BME280_temperature;BME280_humidity;BME280_pressure;Samples;Min_cycle;Max_cycle;Signal;HPM_P1;HPM_P2
2023/04/04 00:54:06;;;;;;;9.20;8.60;;;1.50;99.90;;;;;;5277810;23;20892;-77
2023/04/04 00:56:37;;;;;;;10.30;9.80;;;1.70;99.90;;;;;;4895351;29;20459;-76
2023/04/04 00:59:04;;;;;;;9.67;9.17;;;1.70;99.90;;;;;;4895176;29;20448;-76
2023/04/04 01:01:31;;;;;;;9.87;9.30;;;1.70;99.90;;;;;;4895286;29;20512;-77
2023/04/04 01:03:58;;;;;;;9.00;8.60;;;1.60;99.90;;;;;;4895208;29;20456;-75
2023/04/04 01:06:26;;;;;;;9.87;9.13;;;1.60;99.90;;;;;;4895378;29;20524;-74
2023/04/04 01:08:55;;;;;;;8.07;7.57;;;1.70;99.90;;;;;;4895081;29;20902;-76
2023/04/04 01:11:23;;;;;;;9.10;8.70;;;1.60;99.90;;;;;;4894559;29;20853;-76
2023/04/04 01:13:50;;;;;;;8.03;7.63;;;1.70;99.90;;;;;;4894333;29;20459;-75
2023/04/04 01:16:17;;;;;;;8.87;8.20;;;1.70;99.90;;;;;;4895117;29;20449;-76
2023/04/04 01:18:44;;;;;;;8.90;8.50;;;1.70;99.90;;;;;;4895463;29;20480;-77
2023/04/04 01:21:13;;;;;;;9.07;8.67;;;1.70;99.90;;;;;;4895893;29;20499;-78
2023/04/04 01:23:49;;;;;;;10.67;10.17;;;1.60;99.90;;;;;;4895051;29;20469;-77
2023/04/04 01:26:17;;;;;;;8.40;7.90;;;1.60;99.90;;;;;;4894672;29;20459;-76
2023/04/04 01:28:44;;;;;;;8.77;8.37;;;1.50;99.90;;;;;;4894595;29;20499;-76
2023/04/04 01:31:13;;;;;;;8.93;8.53;;;1.40;99.90;;;;;;4894735;29;20462;-76
2023/04/04 01:33:45;;;;;;;8.90;8.30;;;1.30;99.90;;;;;;4894755;29;20473;-77
2023/04/04 01:36:18;;;;;;;9.53;8.93;;;1.30;99.90;;;;;;4895012;29;20464;-76
2023/04/04 01:38:53;;;;;;;7.40;7.10;;;1.20;99.90;;;;;;4894412;29;20456;-76
2023/04/04 01:41:23;;;;;;;8.60;8.20;;;1.10;99.90;;;;;;4894372;29;20482;-76
2023/04/04 01:43:50;;;;;;;8.57;8.17;;;1.10;99.90;;;;;;4894366;29;20481;-76
2023/04/04 01:46:17;;;;;;;8.93;8.53;;;1.10;99.90;;;;;;4893954;29;20545;-76
2023/04/04 01:48:45;;;;;;;9.20;8.80;;;1.00;99.90;;;;;;4893711;29;20494;-75
2023/04/04 01:51:12;;;;;;;10.37;9.63;;;1.00;99.90;;;;;;4893142;29;20467;-76
2023/04/04 01:53:39;;;;;;;11.07;10.47;;;1.00;99.90;;;;;;4875612;29;21026;-76
2023/04/04 01:56:06;;;;;;;9.47;8.97;;;1.00;99.90;;;;;;4875505;29;20880;-76
2023/04/04 01:58:34;;;;;;;9.67;9.07;;;1.00;99.90;;;;;;4875405;29;20518;-76
2023/04/04 02:01:00;;;;;;;9.40;8.67;;;0.90;99.90;;;;;;4874002;29;20452;-75
2023/04/04 02:03:27;;;;;;;10.33;9.83;;;0.90;99.90;;;;;;4874473;29;20468;-75
2023/04/04 02:05:54;;;;;;;9.17;8.33;;;0.90;99.90;;;;;;4874600;29;20460;-74
2023/04/04 02:08:20;;;;;;;8.17;7.87;;;0.80;99.90;;;;;;4874266;29;20509;-73
2023/04/04 02:10:47;;;;;;;8.50;7.77;;;0.80;99.90;;;;;;4874276;29;20471;-73
2023/04/04 02:13:14;;;;;;;8.57;8.17;;;0.80;99.90;;;;;;4874231;29;20528;-75
2023/04/04 02:15:42;;;;;;;9.80;9.27;;;0.70;99.90;;;;;;4874373;29;20947;-75
2023/04/04 02:18:09;;;;;;;9.67;9.17;;;0.60;99.90;;;;;;4874173;29;20532;-75
2023/04/04 02:20:35;;;;;;;10.67;10.10;;;0.60;99.90;;;;;;4873783;29;20468;-75
2023/04/04 02:23:02;;;;;;;11.70;10.70;;;0.50;99.90;;;;;;4873495;29;20469;-75
2023/04/04 02:25:28;;;;;;;10.83;10.33;;;0.50;99.90;;;;;;4874121;29;20927;-75
2023/04/04 02:27:55;;;;;;;10.20;9.70;;;0.50;99.90;;;;;;4874420;29;21020;-75
2023/04/04 02:30:22;;;;;;;10.90;10.50;;;0.40;99.90;;;;;;4874096;29;20471;-75
2023/04/04 02:32:51;;;;;;;10.03;9.43;;;0.40;99.90;;;;;;4873895;29;20917;-75
2023/04/04 02:35:17;;;;;;;11.07;10.47;;;0.40;99.90;;;;;;4874026;29;20459;-74
2023/04/04 02:37:46;;;;;;;10.37;9.77;;;0.30;99.90;;;;;;4873858;29;20453;-75
2023/04/04 02:40:13;;;;;;;10.43;9.70;;;0.20;99.90;;;;;;4874043;29;20552;-75
2023/04/04 02:42:43;;;;;;;10.50;10.00;;;0.20;99.90;;;;;;4874303;29;20462;-75
2023/04/04 02:45:10;;;;;;;10.00;9.50;;;0.30;99.90;;;;;;4874307;29;20584;-76
2023/04/04 02:47:37;;;;;;;10.43;9.83;;;0.30;99.90;;;;;;4874106;29;20457;-75
2023/04/04 02:50:07;;;;;;;8.67;8.20;;;0.40;99.90;;;;;;4873891;29;20503;-76
2023/04/04 02:52:33;;;;;;;9.70;9.23;;;0.40;99.90;;;;;;4873800;29;20815;-76
2023/04/04 02:55:00;;;;;;;11.03;10.43;;;0.40;99.90;;;;;;4874046;29;20516;-75
2023/04/04 02:57:27;;;;;;;10.40;10.00;;;0.40;99.90;;;;;;4874339;29;20512;-74
2023/04/04 02:59:53;;;;;;;10.67;9.97;;;0.50;99.90;;;;;;4874181;29;20467;-74
2023/04/04 03:02:20;;;;;;;11.53;10.90;;;0.40;99.90;;;;;;4873736;29;20530;-75
2023/04/04 03:04:47;;;;;;;9.73;9.23;;;0.30;99.90;;;;;;4873988;29;20614;-75
2023/04/04 03:07:15;;;;;;;10.10;9.70;;;0.30;99.90;;;;;;4874151;29;20506;-75
2023/04/04 03:09:43;;;;;;;12.27;11.60;;;0.30;99.90;;;;;;4874075;29;20497;-76
2023/04/04 03:12:10;;;;;;;9.80;9.20;;;0.40;99.90;;;;;;4874142;29;20560;-76
2023/04/04 03:14:37;;;;;;;10.40;9.50;;;0.30;99.90;;;;;;4873696;29;20461;-76
2023/04/04 03:17:04;;;;;;;10.13;9.63;;;0.30;99.90;;;;;;4873941;29;20547;-76
2023/04/04 03:19:31;;;;;;;12.10;11.50;;;0.40;99.90;;;;;;4873861;29;20467;-76
2023/04/04 03:21:58;;;;;;;10.50;10.00;;;0.50;99.90;;;;;;4873833;29;20463;-77
2023/04/04 03:24:27;;;;;;;10.17;9.73;;;0.60;99.90;;;;;;4873904;29;20457;-77
2023/04/04 03:26:54;;;;;;;9.33;8.93;;;0.70;99.90;;;;;;4874081;29;20784;-77
2023/04/04 03:29:20;;;;;;;10.67;9.93;;;0.60;99.90;;;;;;4873543;29;20504;-77
2023/04/04 03:31:47;;;;;;;8.87;8.47;;;0.60;99.90;;;;;;4873800;29;20466;-76
2023/04/04 03:34:14;;;;;;;9.97;9.43;;;0.60;99.90;;;;;;4873870;29;20465;-77
2023/04/04 03:36:41;;;;;;;10.57;9.90;;;0.50;99.90;;;;;;4876133;29;20493;-77
2023/04/04 03:39:07;;;;;;;10.73;10.23;;;0.50;99.90;;;;;;4876888;29;20513;-77
2023/04/04 03:41:36;;;;;;;10.43;9.70;;;0.50;99.90;;;;;;4876028;29;20460;-77
2023/04/04 03:44:04;;;;;;;10.00;9.33;;;0.60;99.90;;;;;;4876399;29;21004;-77
2023/04/04 03:46:30;;;;;;;9.00;8.40;;;0.60;99.90;;;;;;4876522;29;20838;-77
2023/04/04 03:48:57;;;;;;;9.07;8.70;;;0.60;99.90;;;;;;4876437;29;20529;-78
2023/04/04 03:51:24;;;;;;;9.83;9.43;;;0.70;99.90;;;;;;4876336;29;20460;-78
2023/04/04 03:53:51;;;;;;;9.50;9.10;;;0.80;99.90;;;;;;4876269;29;20487;-79
2023/04/04 03:56:17;;;;;;;10.17;9.67;;;0.80;99.90;;;;;;4876064;29;20466;-78
2023/04/04 03:58:45;;;;;;;10.63;10.13;;;0.90;99.90;;;;;;4876282;29;20456;-78
2023/04/04 04:01:12;;;;;;;10.50;10.00;;;0.90;99.90;;;;;;4876445;29;20458;-78
2023/04/04 04:03:39;;;;;;;10.33;9.70;;;0.90;99.90;;;;;;4876510;29;20465;-79
2023/04/04 04:06:06;;;;;;;10.77;10.17;;;0.90;99.90;;;;;;4876814;29;20462;-78
2023/04/04 04:08:32;;;;;;;10.80;10.10;;;0.90;99.90;;;;;;4876596;29;20643;-78
2023/04/04 04:11:04;;;;;;;10.37;9.77;;;0.90;99.90;;;;;;4876779;29;20456;-78
2023/04/04 04:13:30;;;;;;;10.50;10.00;;;0.90;99.90;;;;;;4876105;29;20456;-78
2023/04/04 04:15:58;;;;;;;9.43;8.80;;;0.90;99.90;;;;;;4876452;29;20463;-78
2023/04/04 04:18:25;;;;;;;12.30;11.40;;;0.90;99.90;;;;;;4876478;29;20459;-78
2023/04/04 04:20:56;;;;;;;8.47;7.97;;;0.80;99.90;;;;;;4876628;29;20470;-77
2023/04/04 04:23:23;;;;;;;9.17;8.40;;;0.90;99.90;;;;;;4876169;29;20499;-78
2023/04/04 04:25:50;;;;;;;9.63;8.83;;;0.90;99.90;;;;;;4875939;29;20457;-78
2023/04/04 04:28:17;;;;;;;9.50;9.03;;;0.90;99.90;;;;;;4875828;29;20511;-77
2023/04/04 04:30:44;;;;;;;10.90;10.10;;;0.90;99.90;;;;;;4875870;29;20460;-77
2023/04/04 04:33:12;;;;;;;9.10;8.80;;;1.00;99.90;;;;;;4876135;29;20540;-77
2023/04/04 04:35:38;;;;;;;9.80;9.10;;;1.00;99.90;;;;;;4875977;29;20460;-77
2023/04/04 04:38:05;;;;;;;9.90;9.20;;;1.00;99.90;;;;;;4875813;29;20467;-77
2023/04/04 04:40:32;;;;;;;9.70;9.20;;;1.00;99.90;;;;;;4875765;29;20926;-77
2023/04/04 04:42:59;;;;;;;9.70;9.30;;;1.00;99.90;;;;;;4875760;29;20481;-77
2023/04/04 04:45:26;;;;;;;9.70;9.10;;;1.00;99.90;;;;;;4876039;29;20449;-76
2023/04/04 04:47:53;;;;;;;10.53;9.57;;;1.00;99.90;;;;;;4875386;29;20828;-77
2023/04/04 04:50:21;;;;;;;9.33;8.73;;;0.90;99.90;;;;;;4875480;29;20531;-76
2023/04/04 04:52:50;;;;;;;9.07;8.57;;;0.90;99.90;;;;;;4875381;29;20477;-77
2023/04/04 04:55:17;;;;;;;9.70;8.97;;;0.90;99.90;;;;;;4875660;29;21013;-76
2023/04/04 04:57:43;;;;;;;9.40;9.00;;;1.00;99.90;;;;;;4875583;29;20549;-76
2023/04/04 05:00:11;;;;;;;10.13;9.73;;;1.00;99.90;;;;;;4875582;29;20452;-76
2023/04/04 05:02:38;;;;;;;10.97;10.17;;;1.10;99.90;;;;;;4875519;29;20561;-76
2023/04/04 05:05:05;;;;;;;10.07;9.53;;;1.00;99.90;;;;;;4875499;29;20831;-76
2023/04/04 05:07:33;;;;;;;9.47;8.60;;;1.00;99.90;;;;;;4875202;29;20457;-76
2023/04/04 05:10:01;;;;;;;10.57;9.87;;;1.00;99.90;;;;;;4875247;29;20494;-75
2023/04/04 05:12:27;;;;;;;8.83;8.37;;;1.00;99.90;;;;;;4875409;29;20959;-74
2023/04/04 05:14:54;;;;;;;9.40;8.87;;;1.00;99.90;;;;;;4875480;29;20864;-75
2023/04/04 05:17:21;;;;;;;11.50;10.83;;;1.00;99.90;;;;;;4875338;29;20510;-77
2023/04/04 05:19:48;;;;;;;10.77;10.07;;;1.00;99.90;;;;;;4875216;29;20462;-75
2023/04/04 05:22:15;;;;;;;8.67;8.20;;;1.00;99.90;;;;;;4875048;29;20458;-77
2023/04/04 05:24:43;;;;;;;10.03;9.30;;;1.00;99.90;;;;;;4875346;29;20477;-79
2023/04/04 05:27:10;;;;;;;10.50;9.80;;;1.00;99.90;;;;;;4875909;29;20464;-80
2023/04/04 05:29:37;;;;;;;9.70;9.10;;;0.90;99.90;;;;;;4875318;29;20493;-79
2023/04/04 05:32:04;;;;;;;9.43;8.90;;;1.00;99.90;;;;;;4875254;29;20463;-80
2023/04/04 05:34:31;;;;;;;10.00;9.40;;;0.90;99.90;;;;;;4886388;29;20957;-79
2023/04/04 05:36:57;;;;;;;8.60;8.10;;;0.90;99.90;;;;;;4893946;29;20500;-80
2023/04/04 05:39:24;;;;;;;11.03;10.47;;;0.90;99.90;;;;;;4893931;29;20507;-79
2023/04/04 05:41:52;;;;;;;9.53;9.13;;;0.90;99.90;;;;;;4893976;29;20959;-78
2023/04/04 05:44:19;;;;;;;11.03;10.43;;;0.90;99.90;;;;;;4893881;29;20900;-79
2023/04/04 05:46:45;;;;;;;10.37;9.20;;;1.00;99.90;;;;;;4893798;29;20854;-77
2023/04/04 05:49:12;;;;;;;8.80;8.40;;;1.10;99.90;;;;;;4893973;29;20557;-80
2023/04/04 05:51:38;;;;;;;8.47;8.07;;;1.20;99.90;;;;;;4893553;29;20538;-79
2023/04/04 05:54:06;;;;;;;9.90;9.20;;;1.70;99.90;;;;;;4893385;29;20538;-79
2023/04/04 05:56:32;;;;;;;9.30;8.80;;;2.00;98.90;;;;;;4879073;29;20714;-77
2023/04/04 05:59:01;;;;;;;10.60;9.97;;;2.30;97.90;;;;;;4874335;29;20476;-78
2023/04/04 06:01:28;;;;;;;11.03;10.53;;;2.60;97.20;;;;;;4874985;29;20953;-77
2023/04/04 06:03:55;;;;;;;10.80;10.27;;;2.70;96.60;;;;;;4874968;29;20550;-76
2023/04/04 06:06:23;;;;;;;11.17;10.30;;;2.80;96.20;;;;;;4874769;29;20519;-75
2023/04/04 06:08:50;;;;;;;9.53;9.10;;;2.90;95.80;;;;;;4874588;29;20513;-75
2023/04/04 06:11:16;;;;;;;9.93;9.43;;;3.10;95.40;;;;;;4874061;29;20532;-76
2023/04/04 06:13:43;;;;;;;10.67;10.17;;;3.30;95.20;;;;;;4874123;29;20489;-76
2023/04/04 06:16:11;;;;;;;10.30;9.80;;;3.40;94.40;;;;;;4874527;29;20471;-76
2023/04/04 06:18:38;;;;;;;10.30;9.80;;;3.40;93.80;;;;;;4874710;29;20461;-76
2023/04/04 06:21:04;;;;;;;9.20;8.80;;;3.50;93.80;;;;;;4874396;29;20467;-77
2023/04/04 06:23:31;;;;;;;10.50;10.00;;;3.70;93.30;;;;;;4874698;29;20539;-78
2023/04/04 06:25:58;;;;;;;11.17;10.67;;;3.80;93.10;;;;;;4874632;29;20469;-77
2023/04/04 06:28:24;;;;;;;10.80;10.20;;;3.80;92.80;;;;;;4874679;29;20532;-77
2023/04/04 06:30:51;;;;;;;11.47;10.57;;;4.00;92.10;;;;;;4874426;29;21011;-76
2023/04/04 06:33:19;;;;;;;11.40;10.50;;;4.20;91.50;;;;;;4874387;29;20986;-76
2023/04/04 06:35:46;;;;;;;14.73;10.27;;;4.20;91.20;;;;;;4874593;29;20462;-76
2023/04/04 06:38:13;;;;;;;9.97;9.57;;;4.50;90.80;;;;;;4874672;29;20809;-78
2023/04/04 06:40:39;;;;;;;11.13;10.53;;;4.60;90.10;;;;;;4873039;29;20474;-79
2023/04/04 06:46:00;;;;;;;11.60;10.87;;;5.10;89.20;;;;;;4859444;29;20503;-73
2023/04/04 06:48:28;;;;;;;11.27;10.50;;;5.50;87.40;;;;;;4872556;29;20468;-72
2023/04/04 06:50:55;;;;;;;12.47;11.50;;;5.80;85.10;;;;;;4874379;29;20515;-73
2023/04/04 06:53:23;;;;;;;10.33;9.73;;;5.60;84.10;;;;;;4873439;29;20582;-73
2023/04/04 06:55:50;;;;;;;10.20;9.80;;;5.60;83.80;;;;;;4873871;29;20551;-73
2023/04/04 06:58:17;;;;;;;10.47;10.03;;;5.80;83.70;;;;;;4873914;29;20459;-73
2023/04/04 07:00:43;;;;;;;10.37;9.70;;;5.60;83.20;;;;;;4873729;29;20474;-73
2023/04/04 07:03:10;;;;;;;11.30;10.50;;;5.50;83.80;;;;;;4874090;29;20459;-72
2023/04/04 07:05:40;;;;;;;11.07;10.53;;;5.70;84.30;;;;;;4873855;29;20455;-73
2023/04/04 07:08:07;;;;;;;10.30;9.70;;;5.90;82.50;;;;;;4873650;29;20539;-73
2023/04/04 07:10:33;;;;;;;10.27;9.53;;;5.80;81.30;;;;;;4875925;29;20527;-74
2023/04/04 07:13:00;;;;;;;10.17;9.67;;;5.90;81.90;;;;;;4877747;29;20462;-74
2023/04/04 07:15:27;;;;;;;10.87;10.37;;;6.10;82.10;;;;;;4877991;29;20878;-73
2023/04/04 07:17:54;;;;;;;10.43;9.73;;;6.30;80.50;;;;;;4877940;29;20546;-73
2023/04/04 07:20:20;;;;;;;11.77;10.93;;;6.80;79.70;;;;;;4877615;29;20456;-73
2023/04/04 07:22:49;;;;;;;11.40;10.70;;;6.70;77.50;;;;;;4877674;29;20478;-73
2023/04/04 16:00:47;;;;;;;14.57;13.43;;;9.60;54.00;;;;;;5578221;23;20491;-74
2023/04/04 16:03:14;;;;;;;10.67;10.17;;;9.60;53.90;;;;;;4894356;29;20459;-74
2023/04/04 16:05:41;;;;;;;10.60;10.00;;;9.50;54.40;;;;;;4895170;29;20575;-73
2023/04/04 16:08:07;;;;;;;10.10;9.60;;;9.50;53.30;;;;;;4895539;29;20570;-73
2023/04/04 16:10:35;;;;;;;12.07;11.27;;;9.40;54.20;;;;;;4894355;29;20757;-72
2023/04/04 16:13:01;;;;;;;11.77;11.17;;;9.40;54.70;;;;;;4895057;29;20459;-73
2023/04/04 16:15:28;;;;;;;10.27;9.67;;;9.10;54.10;;;;;;4894551;29;20960;-72
2023/04/04 16:17:57;;;;;;;10.97;10.37;;;9.00;54.40;;;;;;4895259;29;20460;-73
2023/04/04 16:20:24;;;;;;;11.60;10.90;;;8.80;54.80;;;;;;4894691;29;20515;-72
2023/04/04 16:22:51;;;;;;;10.63;10.10;;;8.70;55.30;;;;;;4893449;29;20462;-72
2023/04/04 16:25:18;;;;;;;12.43;11.73;;;8.70;56.40;;;;;;4891523;29;20551;-73
2023/04/04 16:27:44;;;;;;;10.73;10.23;;;8.70;56.10;;;;;;4892251;29;20990;-73
2023/04/04 16:30:12;;;;;;;10.73;10.13;;;8.70;55.80;;;;;;4893421;29;20914;-74
2023/04/04 16:32:40;;;;;;;9.97;9.47;;;8.70;56.20;;;;;;4895036;29;20487;-73
2023/04/04 16:35:09;;;;;;;10.60;10.10;;;8.60;56.70;;;;;;4894813;29;20451;-73
2023/04/04 16:37:36;;;;;;;9.43;9.03;;;8.50;57.80;;;;;;4894751;29;20476;-73
2023/04/04 16:40:03;;;;;;;9.53;9.03;;;8.50;56.80;;;;;;4894646;29;20468;-72
2023/04/04 16:42:30;;;;;;;11.07;10.50;;;8.40;55.90;;;;;;4892222;29;20535;-73
2023/04/04 16:44:57;;;;;;;10.83;10.23;;;8.40;56.80;;;;;;4894069;29;20451;-73
2023/04/04 16:47:24;;;;;;;10.73;10.13;;;8.40;56.30;;;;;;4894768;29;20463;-73
2023/04/04 16:49:51;;;;;;;10.17;9.57;;;8.30;56.60;;;;;;4894385;29;20487;-74
2023/04/04 16:52:19;;;;;;;11.10;10.30;;;8.30;56.80;;;;;;4894571;29;20456;-74
2023/04/04 16:54:45;;;;;;;10.33;9.83;;;8.20;56.60;;;;;;4894288;29;20467;-73
2023/04/04 16:57:12;;;;;;;11.70;11.10;;;8.20;56.90;;;;;;4894491;29;20493;-74
2023/04/04 16:59:39;;;;;;;11.90;11.17;;;8.20;57.70;;;;;;4884521;29;20480;-74
2023/04/04 17:02:06;;;;;;;9.03;8.60;;;8.10;57.40;;;;;;4875215;29;21110;-73
2023/04/04 17:04:33;;;;;;;9.40;8.70;;;8.10;57.30;;;;;;4875441;29;20541;-73
2023/04/04 17:07:02;;;;;;;10.23;9.60;;;8.00;57.50;;;;;;4873464;29;20460;-73
2023/04/04 17:09:30;;;;;;;12.13;11.33;;;8.00;58.00;;;;;;4875768;29;20492;-70
2023/04/04 17:11:57;;;;;;;9.77;9.17;;;7.90;57.90;;;;;;4875742;29;20551;-73
2023/04/04 17:14:25;;;;;;;10.90;10.40;;;7.80;57.80;;;;;;4875607;29;20444;-73
2023/04/04 17:16:52;;;;;;;10.53;9.83;;;7.70;58.30;;;;;;4875549;29;20448;-73
2023/04/04 17:19:18;;;;;;;12.33;11.73;;;7.70;58.00;;;;;;4875186;29;20464;-73
2023/04/04 17:21:45;;;;;;;10.30;9.90;;;7.60;58.50;;;;;;4875318;29;20456;-73
2023/04/04 17:24:13;;;;;;;10.13;9.53;;;7.50;58.80;;;;;;4873703;29;20456;-72
2023/04/04 17:26:41;;;;;;;11.20;10.70;;;7.50;59.10;;;;;;4875607;29;20542;-73
2023/04/04 17:29:07;;;;;;;10.30;9.73;;;7.40;59.10;;;;;;4868367;29;20460;-72
2023/04/04 17:31:34;;;;;;;10.50;9.90;;;7.30;59.40;;;;;;4873119;29;20499;-72
2023/04/04 17:34:01;;;;;;;10.17;9.47;;;7.20;59.00;;;;;;4873229;29;20460;-72
2023/04/04 17:36:29;;;;;;;9.83;9.03;;;7.20;59.40;;;;;;4875369;29;20581;-72
2023/04/04 17:38:56;;;;;;;10.03;9.30;;;7.10;59.20;;;;;;4875372;29;20492;-71
2023/04/04 17:41:23;;;;;;;9.80;9.17;;;7.00;59.40;;;;;;4874878;29;20476;-72
2023/04/04 17:43:51;;;;;;;9.10;8.60;;;7.00;60.10;;;;;;4875091;29;20468;-71
2023/04/04 17:46:18;;;;;;;10.90;10.20;;;7.00;60.00;;;;;;4875262;29;20464;-73
2023/04/04 17:48:45;;;;;;;9.53;8.83;;;6.90;59.90;;;;;;4875173;29;20874;-71
2023/04/04 17:51:12;;;;;;;11.00;10.33;;;6.90;61.00;;;;;;4875069;29;20487;-72
2023/04/04 17:53:38;;;;;;;10.17;9.67;;;6.80;60.90;;;;;;4874452;29;20563;-71
2023/04/04 17:56:05;;;;;;;9.20;8.80;;;6.80;60.70;;;;;;4873769;29;20459;-72
2023/04/04 17:58:32;;;;;;;9.43;8.70;;;6.70;61.20;;;;;;4874537;29;20487;-72
2023/04/04 18:01:02;;;;;;;9.10;8.30;;;6.70;61.30;;;;;;4874509;29;20823;-72
2023/04/04 18:03:28;;;;;;;10.33;9.83;;;6.70;61.20;;;;;;4874612;29;20468;-72
2023/04/04 18:05:55;;;;;;;10.57;9.97;;;6.70;62.20;;;;;;4874615;29;20460;-72
2023/04/04 18:08:22;;;;;;;10.20;9.70;;;6.60;62.00;;;;;;4874510;29;20492;-72
2023/04/04 18:10:49;;;;;;;10.97;10.20;;;6.60;62.60;;;;;;4874479;29;20629;-71
2023/04/04 18:13:16;;;;;;;10.13;9.60;;;6.60;63.50;;;;;;4874283;29;20459;-73
2023/04/04 18:15:43;;;;;;;10.53;9.87;;;6.50;63.60;;;;;;4874534;29;20883;-73
2023/04/04 18:18:11;;;;;;;10.53;9.83;;;6.30;64.70;;;;;;4872094;29;20518;-74
2023/04/04 18:20:38;;;;;;;10.40;9.70;;;6.30;66.00;;;;;;4874114;29;20456;-72
2023/04/04 18:23:04;;;;;;;9.80;9.20;;;6.20;67.30;;;;;;4874001;29;20487;-73
2023/04/04 18:25:33;;;;;;;10.90;10.30;;;6.20;68.00;;;;;;4874027;29;20460;-72
2023/04/04 18:28:00;;;;;;;9.90;9.20;;;6.10;68.50;;;;;;4873914;29;20466;-73
2023/04/04 18:30:27;;;;;;;10.50;9.90;;;6.10;69.30;;;;;;4874092;29;20492;-71
2023/04/04 18:32:56;;;;;;;11.17;10.33;;;6.00;69.30;;;;;;4874380;29;20561;-74
2023/04/04 18:35:24;;;;;;;10.90;10.33;;;6.00;69.30;;;;;;4873956;29;20975;-72
2023/04/04 18:37:50;;;;;;;10.40;9.83;;;5.90;69.10;;;;;;4874138;29;20463;-74
2023/04/04 18:40:17;;;;;;;10.87;10.20;;;5.90;69.10;;;;;;4873704;29;20458;-73
2023/04/04 18:42:44;;;;;;;10.70;10.07;;;5.90;69.40;;;;;;4868550;29;21017;-72
2023/04/04 18:45:11;;;;;;;10.30;9.80;;;5.80;69.80;;;;;;4874012;29;20467;-73
2023/04/04 18:47:38;;;;;;;12.40;11.40;;;5.80;70.70;;;;;;4873943;29;20555;-73
2023/04/04 18:50:07;;;;;;;11.57;10.77;;;5.70;70.90;;;;;;4873551;29;20471;-72
2023/04/04 18:52:35;;;;;;;10.87;10.17;;;5.70;71.10;;;;;;4873851;29;20781;-72
2023/04/04 18:55:02;;;;;;;10.23;9.53;;;5.60;71.50;;;;;;4873748;29;20559;-72
2023/04/04 18:57:29;;;;;;;10.97;10.27;;;5.60;72.00;;;;;;4873804;29;20459;-73
2023/04/04 18:59:56;;;;;;;10.13;9.57;;;5.60;72.60;;;;;;4874013;29;20486;-74
2023/04/04 19:02:22;;;;;;;11.60;10.50;;;5.60;72.30;;;;;;4873649;29;20527;-74
2023/04/04 19:04:52;;;;;;;11.23;10.63;;;5.60;73.30;;;;;;4874116;29;20466;-73
2023/04/04 19:07:22;;;;;;;11.80;11.00;;;5.50;73.80;;;;;;4876907;29;20455;-73
2023/04/04 19:09:51;;;;;;;10.30;9.70;;;5.50;73.90;;;;;;4877459;29;20474;-72
2023/04/04 19:12:17;;;;;;;11.37;10.77;;;5.50;74.60;;;;;;4877220;29;20590;-71
2023/04/04 19:14:44;;;;;;;10.93;10.23;;;5.40;75.10;;;;;;4877520;29;20467;-71
2023/04/04 19:17:14;;;;;;;11.07;10.27;;;5.30;75.60;;;;;;4877448;29;20464;-72
2023/04/04 19:19:41;;;;;;;11.50;10.80;;;5.30;76.30;;;;;;4877764;29;20476;-73
2023/04/04 19:22:07;;;;;;;12.17;11.50;;;5.20;77.00;;;;;;4875105;29;20538;-72
2023/04/04 19:24:34;;;;;;;11.50;10.80;;;5.20;77.40;;;;;;4876879;29;20460;-73
2023/04/04 19:27:02;;;;;;;10.47;9.70;;;5.20;77.70;;;;;;4876794;29;20965;-72
2023/04/04 19:29:30;;;;;;;11.00;10.30;;;5.30;77.60;;;;;;4876897;29;20555;-73
2023/04/04 19:32:00;;;;;;;11.40;10.73;;;5.20;77.70;;;;;;4877222;29;20498;-73
2023/04/04 19:34:28;;;;;;;10.87;10.27;;;5.20;78.00;;;;;;4877366;29;20481;-73
2023/04/04 19:36:54;;;;;;;10.60;9.90;;;5.20;77.80;;;;;;4877655;29;20462;-74
2023/04/04 19:39:32;;;;;;;12.33;11.30;;;5.20;78.10;;;;;;4876945;29;20462;-72
2023/04/04 19:42:01;;;;;;;12.43;11.60;;;5.00;78.80;;;;;;4876965;29;20971;-72
2023/04/04 19:44:28;;;;;;;10.10;9.50;;;5.10;79.10;;;;;;4877098;29;20464;-72
2023/04/04 19:46:55;;;;;;;9.93;9.40;;;5.00;79.00;;;;;;4877352;29;20563;-72
2023/04/04 19:49:26;;;;;;;11.63;10.93;;;5.00;79.30;;;;;;4876948;29;20456;-72
2023/04/04 19:51:55;;;;;;;11.77;10.90;;;5.10;79.00;;;;;;4877302;29;20498;-73
2023/04/04 19:54:26;;;;;;;11.20;10.30;;;5.10;79.00;;;;;;4876920;29;20463;-74
2023/04/04 19:57:00;;;;;;;10.90;10.30;;;5.10;78.90;;;;;;4876970;29;20466;-74
2023/04/04 19:59:57;;;;;;;10.97;10.03;;;5.10;78.70;;;;;;4877028;29;20837;-72
2023/04/04 20:02:53;;;;;;;10.40;9.70;;;5.10;78.80;;;;;;4854998;29;20553;-74
2023/04/04 20:05:55;;;;;;;12.77;11.97;;;5.00;79.60;;;;;;4876769;29;20463;-74
2023/04/04 20:08:22;;;;;;;10.90;10.00;;;4.90;80.20;;;;;;4877057;29;20458;-73
2023/04/04 20:10:49;;;;;;;9.93;9.00;;;4.90;80.30;;;;;;4876923;29;20587;-72
2023/04/04 20:13:18;;;;;;;10.50;9.90;;;4.80;80.90;;;;;;4876967;29;20488;-73
2023/04/04 20:16:02;;;;;;;12.40;11.40;;;4.70;81.80;;;;;;4877227;29;20958;-73
2023/04/04 20:18:30;;;;;;;10.53;10.00;;;4.60;82.10;;;;;;4876131;29;20501;-74
2023/04/04 20:21:06;;;;;;;11.50;10.90;;;4.50;82.90;;;;;;4877141;29;20512;-73
2023/04/04 20:23:41;;;;;;;10.47;9.80;;;4.30;83.30;;;;;;4876841;29;20924;-73
2023/04/04 20:26:12;;;;;;;11.33;10.40;;;4.20;84.90;;;;;;4876750;29;20486;-73
2023/04/04 20:28:40;;;;;;;11.87;11.07;;;4.20;85.90;;;;;;4876927;29;20460;-73
2023/04/04 20:31:10;;;;;;;11.50;10.80;;;4.30;85.50;;;;;;4876232;29;20544;-73
2023/04/04 20:33:38;;;;;;;12.33;11.60;;;4.40;84.70;;;;;;4876524;29;20465;-73
2023/04/04 20:36:10;;;;;;;9.90;9.20;;;4.60;84.50;;;;;;4876302;29;20464;-72
2023/04/04 20:38:39;;;;;;;11.30;10.60;;;4.50;83.90;;;;;;4876705;29;21028;-73
2023/04/04 20:41:15;;;;;;;11.33;10.53;;;4.50;83.90;;;;;;4876249;29;20466;-74
2023/04/04 20:43:48;;;;;;;11.87;10.73;;;4.40;84.30;;;;;;4875825;29;20458;-72
2023/04/04 20:46:16;;;;;;;11.83;10.97;;;4.30;86.00;;;;;;4875732;29;20489;-72
2023/04/04 20:48:44;;;;;;;11.70;11.00;;;4.10;86.90;;;;;;4875567;29;20453;-72
2023/04/04 20:51:32;;;;;;;11.90;11.10;;;4.00;88.10;;;;;;4875484;29;20496;-72
2023/04/04 20:54:02;;;;;;;14.20;13.27;;;3.90;89.40;;;;;;4871247;29;20462;-73
2023/04/04 20:56:53;;;;;;;12.07;11.30;;;3.80;90.30;;;;;;4882765;29;20468;-75
2023/04/04 20:59:39;;;;;;;11.17;10.30;;;3.60;90.80;;;;;;4885460;29;20481;-73
2023/04/04 21:02:15;;;;;;;11.70;10.60;;;3.50;91.70;;;;;;4882191;29;20474;-74
2023/04/04 21:04:44;;;;;;;12.67;11.87;;;3.40;92.30;;;;;;4884137;29;20563;-75
2023/04/04 21:07:42;;;;;;;11.87;11.03;;;3.30;93.60;;;;;;4879741;29;20570;-74
2023/04/04 21:10:24;;;;;;;11.33;10.43;;;3.40;95.00;;;;;;4885342;29;20444;-74
2023/04/04 21:12:51;;;;;;;11.03;10.23;;;3.50;93.60;;;;;;4884892;29;20826;-75
2023/04/04 21:15:22;;;;;;;11.83;10.93;;;3.60;93.30;;;;;;4882843;29;20456;-75
2023/04/04 21:17:50;;;;;;;14.83;13.60;;;3.60;94.10;;;;;;4885266;29;20537;-75
2023/04/04 21:20:55;;;;;;;11.80;11.00;;;3.60;94.50;;;;;;4881588;29;20659;-73
2023/04/04 21:23:31;;;;;;;10.07;9.47;;;3.60;93.90;;;;;;4883246;29;20803;-73
2023/04/04 21:26:00;;;;;;;10.67;9.97;;;3.60;93.30;;;;;;4882218;29;20496;-74
2023/04/04 21:28:31;;;;;;;12.10;11.30;;;3.50;93.40;;;;;;4883626;29;20544;-75
2023/04/04 21:30:58;;;;;;;12.50;11.37;;;3.40;94.10;;;;;;4881818;29;20881;-75
2023/04/04 21:33:25;;;;;;;11.80;11.00;;;3.30;95.00;;;;;;4883840;29;20536;-75
2023/04/04 21:35:54;;;;;;;11.13;10.47;;;3.30;95.20;;;;;;4885088;29;20443;-74
2023/04/04 21:38:30;;;;;;;11.53;10.83;;;3.10;95.50;;;;;;4883903;29;20462;-74
2023/04/04 21:40:58;;;;;;;14.33;13.53;;;2.90;95.90;;;;;;4884934;29;20558;-73
2023/04/04 21:43:24;;;;;;;13.17;12.00;;;2.80;96.90;;;;;;4884527;29;20449;-74
2023/04/04 21:45:51;;;;;;;12.53;11.57;;;2.70;97.80;;;;;;4882682;29;20448;-74
2023/04/04 21:48:18;;;;;;;12.90;11.60;;;2.50;98.70;;;;;;4884190;29;20817;-74
2023/04/04 21:50:44;;;;;;;11.37;10.60;;;2.60;99.50;;;;;;4884076;29;20456;-74
2023/04/04 21:53:11;;;;;;;12.33;11.53;;;2.50;99.40;;;;;;4882905;29;20492;-74
2023/04/04 21:55:39;;;;;;;11.77;11.00;;;2.40;99.90;;;;;;4884324;29;20447;-74
2023/04/04 21:58:06;;;;;;;12.50;11.37;;;2.30;99.90;;;;;;4884102;29;20520;-74
2023/04/04 22:00:32;;;;;;;14.27;13.10;;;2.40;99.90;;;;;;4882239;29;20915;-74
2023/04/04 22:02:59;;;;;;;14.37;13.33;;;2.40;99.90;;;;;;4883939;29;20447;-75
2023/04/04 22:05:26;;;;;;;14.27;13.17;;;2.20;99.90;;;;;;4884434;29;20460;-74
2023/04/04 22:07:52;;;;;;;12.33;11.50;;;2.10;99.90;;;;;;4883668;29;20455;-73
2023/04/04 22:10:21;;;;;;;12.53;11.73;;;2.00;99.90;;;;;;4884955;29;20493;-74
2023/04/04 22:12:49;;;;;;;12.53;11.60;;;2.00;99.90;;;;;;4885187;29;20598;-74
2023/04/04 22:15:17;;;;;;;12.60;11.70;;;1.90;99.90;;;;;;4881264;29;20448;-74
2023/04/04 22:17:49;;;;;;;12.07;11.20;;;1.90;99.90;;;;;;4884350;29;20532;-74
2023/04/04 22:20:16;;;;;;;12.43;11.33;;;1.90;99.90;;;;;;4881431;29;20462;-74
2023/04/04 22:22:44;;;;;;;12.73;11.83;;;1.70;99.90;;;;;;4884335;29;20447;-74